Time;durP1;ratioP1;P1;durP2;ratioP2;P2;SDS_P1;SDS_P2;PMS_P1;PMS_P2;Temp;Humidity;BMP_temperature;BMP_pressure;BME280_temperature;BME280_humidity;BME280_pressure;Samples;Min_cycle;Max_cycle;Signal;HPM_P1;HPM_P2
2022/12/29 00:02:15;;;;;;;0.77;0.77;;;;;;;;;;5013708;28;20638;-78
2022/12/29 00:04:41;;;;;;;0.80;0.80;;;;;;;;;;5014117;28;20564;-78
2022/12/29 00:07:07;;;;;;;0.60;0.60;;;;;;;;;;5015632;28;20181;-78
2022/12/29 00:09:33;;;;;;;0.70;0.70;;;;;;;;;;5016978;28;20610;-78
2022/12/29 00:12:00;;;;;;;0.60;0.60;;;;;;;;;;5016080;28;20659;-79
2022/12/29 00:17:11;;;;;;;0.70;0.70;;;;;;;;;;5017339;28;20211;-79
2022/12/29 00:36:17;;;;;;;0.60;0.60;;;;;;;;;;5017608;28;20184;-76
2022/12/29 00:44:16;;;;;;;0.70;0.70;;;;;;;;;;5016057;28;20258;-78
2022/12/29 00:46:43;;;;;;;0.63;0.63;;;;;;;;;;5016719;28;20629;-78
2022/12/29 00:51:55;;;;;;;0.70;0.70;;;;;;;;;;5015850;28;20259;-77
2022/12/29 00:54:22;;;;;;;0.60;0.60;;;;;;;;;;5015808;28;20228;-76
2022/12/29 00:56:48;;;;;;;0.70;0.70;;;;;;;;;;5015514;28;20291;-77
2022/12/29 00:59:14;;;;;;;0.70;0.70;;;;;;;;;;5015693;28;20180;-77
2022/12/29 01:01:40;;;;;;;0.70;0.70;;;;;;;;;;5015982;28;20263;-77
2022/12/29 01:04:07;;;;;;;0.80;0.80;;;;;;;;;;5015212;28;20200;-78
2022/12/29 01:06:33;;;;;;;0.60;0.60;;;;;;;;;;5015434;28;20177;-79
2022/12/29 01:11:44;;;;;;;0.70;0.70;;;;;;;;;;5016367;28;20235;-79
2022/12/29 01:14:10;;;;;;;0.80;0.80;;;;;;;;;;5015489;28;20196;-78
2022/12/29 01:16:36;;;;;;;0.53;0.53;;;;;;;;;;5015636;28;20630;-78
2022/12/29 01:19:02;;;;;;;0.80;0.80;;;;;;;;;;5015424;28;20653;-78
2022/12/29 01:21:28;;;;;;;0.67;0.67;;;;;;;;;;5015499;28;20180;-78
2022/12/29 01:23:54;;;;;;;0.70;0.70;;;;;;;;;;5014273;28;20199;-78
2022/12/29 01:26:20;;;;;;;0.70;0.70;;;;;;;;;;5015315;28;20185;-78
2022/12/29 01:28:46;;;;;;;0.73;0.73;;;;;;;;;;5015109;28;20182;-78
2022/12/29 01:31:13;;;;;;;0.70;0.70;;;;;;;;;;5014462;28;20180;-78
2022/12/29 01:33:39;;;;;;;0.80;0.80;;;;;;;;;;5014766;28;20227;-78
2022/12/29 01:36:06;;;;;;;0.67;0.67;;;;;;;;;;5015057;28;20180;-78
2022/12/29 01:38:33;;;;;;;0.77;0.77;;;;;;;;;;5014760;28;20223;-79
2022/12/29 01:40:59;;;;;;;0.70;0.70;;;;;;;;;;5014971;28;20184;-78
2022/12/29 01:43:43;;;;;;;0.67;0.67;;;;;;;;;;5014105;28;20204;-79
2022/12/29 01:46:15;;;;;;;0.53;0.53;;;;;;;;;;5014470;28;20184;-78
2022/12/29 01:48:42;;;;;;;0.70;0.70;;;;;;;;;;5014729;28;20263;-79
2022/12/29 01:51:08;;;;;;;0.60;0.60;;;;;;;;;;5015075;28;20181;-79
2022/12/29 01:53:34;;;;;;;0.70;0.70;;;;;;;;;;5021831;28;20228;-77
2022/12/29 01:56:02;;;;;;;0.73;0.73;;;;;;;;;;5025064;28;20609;-79
2022/12/29 01:58:31;;;;;;;0.67;0.67;;;;;;;;;;5017797;28;20208;-77
2022/12/29 02:00:57;;;;;;;0.70;0.70;;;;;;;;;;5028392;28;20240;-78
2022/12/29 02:03:26;;;;;;;0.80;0.80;;;;;;;;;;5023292;28;20595;-79
2022/12/29 02:05:55;;;;;;;0.70;0.70;;;;;;;;;;5014546;28;20188;-79
2022/12/29 02:08:25;;;;;;;0.60;0.60;;;;;;;;;;5014625;28;20184;-78
2022/12/29 02:10:51;;;;;;;0.80;0.80;;;;;;;;;;5014585;28;20704;-79
2022/12/29 02:13:17;;;;;;;0.80;0.80;;;;;;;;;;5013772;28;20204;-79
2022/12/29 02:15:56;;;;;;;0.70;0.70;;;;;;;;;;5014732;28;20200;-79
2022/12/29 02:18:26;;;;;;;0.80;0.80;;;;;;;;;;5014633;28;20583;-78
2022/12/29 02:21:19;;;;;;;0.60;0.60;;;;;;;;;;5014523;28;20175;-78
2022/12/29 02:24:11;;;;;;;0.60;0.60;;;;;;;;;;5013254;28;20692;-78
2022/12/29 02:26:46;;;;;;;0.60;0.60;;;;;;;;;;5006514;28;20187;-79
2022/12/29 02:29:31;;;;;;;0.63;0.63;;;;;;;;;;5014717;28;20270;-79
2022/12/29 02:32:15;;;;;;;0.70;0.70;;;;;;;;;;5014708;28;20191;-77
2022/12/29 02:34:44;;;;;;;0.60;0.60;;;;;;;;;;5013792;28;20277;-77
2022/12/29 02:37:18;;;;;;;0.80;0.80;;;;;;;;;;5012922;28;20219;-76
2022/12/29 02:39:52;;;;;;;0.53;0.53;;;;;;;;;;5013137;28;20169;-78
2022/12/29 02:42:21;;;;;;;0.60;0.60;;;;;;;;;;5012570;28;20191;-77
2022/12/29 02:44:50;;;;;;;0.70;0.70;;;;;;;;;;5013011;28;20192;-78
2022/12/29 02:47:22;;;;;;;0.60;0.60;;;;;;;;;;5014139;28;20173;-78
2022/12/29 02:49:48;;;;;;;0.70;0.70;;;;;;;;;;5014040;28;20176;-78
2022/12/29 02:52:19;;;;;;;0.70;0.70;;;;;;;;;;5014369;28;20185;-78
2022/12/29 02:54:45;;;;;;;0.80;0.80;;;;;;;;;;5014030;28;20193;-76
2022/12/29 02:57:20;;;;;;;0.70;0.70;;;;;;;;;;5013728;28;20350;-77
2022/12/29 02:59:47;;;;;;;0.80;0.80;;;;;;;;;;5017128;28;20396;-77
2022/12/29 03:02:26;;;;;;;0.60;0.60;;;;;;;;;;5026327;28;20186;-77
2022/12/29 03:05:04;;;;;;;0.70;0.70;;;;;;;;;;5023498;28;20677;-77
2022/12/29 03:07:36;;;;;;;0.77;0.77;;;;;;;;;;5012854;28;20186;-77
2022/12/29 03:10:08;;;;;;;0.70;0.70;;;;;;;;;;5012255;28;20184;-77
2022/12/29 03:16:03;;;;;;;0.70;0.70;;;;;;;;;;5013719;28;20191;-77
2022/12/29 03:18:34;;;;;;;0.50;0.50;;;;;;;;;;5013551;28;20771;-78
2022/12/29 03:21:05;;;;;;;0.70;0.70;;;;;;;;;;5012865;28;20325;-77
2022/12/29 03:23:32;;;;;;;0.57;0.57;;;;;;;;;;5011909;28;20220;-76
2022/12/29 03:26:02;;;;;;;0.70;0.70;;;;;;;;;;5012459;28;20257;-78
2022/12/29 03:28:35;;;;;;;0.60;0.60;;;;;;;;;;5013374;28;20259;-78
2022/12/29 03:31:03;;;;;;;0.70;0.70;;;;;;;;;;5012648;28;20172;-76
2022/12/29 03:33:30;;;;;;;0.70;0.70;;;;;;;;;;5012315;28;20204;-77
2022/12/29 03:36:00;;;;;;;0.70;0.70;;;;;;;;;;5012889;28;20231;-77
2022/12/29 03:38:31;;;;;;;0.53;0.53;;;;;;;;;;5012307;28;20204;-77
2022/12/29 03:40:59;;;;;;;0.60;0.60;;;;;;;;;;5012265;28;20177;-77
2022/12/29 03:43:26;;;;;;;0.57;0.57;;;;;;;;;;5015297;28;20196;-77
2022/12/29 03:45:52;;;;;;;0.80;0.80;;;;;;;;;;5016432;28;20529;-78
2022/12/29 03:48:18;;;;;;;0.70;0.70;;;;;;;;;;5016230;28;20176;-77
2022/12/29 03:50:43;;;;;;;0.60;0.60;;;;;;;;;;5016521;28;20173;-77
2022/12/29 03:53:09;;;;;;;0.60;0.60;;;;;;;;;;5015569;28;20228;-77
2022/12/29 03:55:35;;;;;;;0.60;0.60;;;;;;;;;;5016867;28;20510;-78
2022/12/29 03:58:01;;;;;;;0.60;0.60;;;;;;;;;;5016677;28;20525;-78
2022/12/29 04:00:28;;;;;;;0.63;0.63;;;;;;;;;;5016833;28;20614;-78
2022/12/29 04:02:54;;;;;;;0.50;0.50;;;;;;;;;;5015761;28;20227;-78
2022/12/29 04:05:20;;;;;;;0.60;0.60;;;;;;;;;;5016449;28;20184;-78
2022/12/29 04:07:46;;;;;;;0.60;0.60;;;;;;;;;;5016847;28;20183;-78
2022/12/29 04:10:12;;;;;;;0.80;0.80;;;;;;;;;;5016058;28;20657;-78
2022/12/29 04:12:38;;;;;;;0.70;0.70;;;;;;;;;;5015338;28;20176;-77
2022/12/29 04:15:04;;;;;;;0.57;0.57;;;;;;;;;;5015925;28;20188;-77
2022/12/29 04:17:30;;;;;;;0.70;0.70;;;;;;;;;;5016181;28;20303;-78
2022/12/29 04:20:59;;;;;;;0.70;0.70;;;;;;;;;;5016003;28;20204;-77
2022/12/29 04:22:42;;;;;;;0.50;0.50;;;;;;;;;;5015712;28;20267;-77
2022/12/29 04:25:08;;;;;;;0.60;0.60;;;;;;;;;;5016017;28;20212;-78
2022/12/29 04:27:34;;;;;;;0.60;0.60;;;;;;;;;;5015927;28;20172;-77
2022/12/29 04:30:00;;;;;;;0.70;0.70;;;;;;;;;;5016556;28;20223;-78
2022/12/29 04:32:26;;;;;;;0.57;0.57;;;;;;;;;;5016018;28;20263;-77
2022/12/29 04:34:52;;;;;;;0.60;0.60;;;;;;;;;;5016775;28;20228;-79
2022/12/29 04:37:18;;;;;;;0.60;0.60;;;;;;;;;;5015753;28;20216;-77
2022/12/29 04:39:44;;;;;;;0.67;0.67;;;;;;;;;;5016238;28;20200;-78
2022/12/29 04:42:10;;;;;;;0.60;0.60;;;;;;;;;;5015431;28;20634;-77
2022/12/29 04:44:36;;;;;;;0.50;0.50;;;;;;;;;;5016042;28;20211;-79
2022/12/29 04:47:01;;;;;;;0.57;0.57;;;;;;;;;;5016365;28;20188;-78
2022/12/29 04:49:27;;;;;;;0.53;0.53;;;;;;;;;;5015861;28;20271;-78
2022/12/29 04:51:53;;;;;;;0.63;0.63;;;;;;;;;;5025139;28;20180;-77
2022/12/29 04:54:19;;;;;;;0.63;0.63;;;;;;;;;;5020067;28;20196;-78
2022/12/29 04:56:45;;;;;;;0.50;0.50;;;;;;;;;;5021458;28;20180;-78
2022/12/29 04:59:11;;;;;;;0.60;0.60;;;;;;;;;;5026501;28;20218;-77
2022/12/29 05:01:37;;;;;;;0.70;0.70;;;;;;;;;;5020267;28;20199;-77
2022/12/29 05:04:03;;;;;;;0.80;0.80;;;;;;;;;;5015504;28;20200;-79
2022/12/29 05:06:29;;;;;;;0.60;0.60;;;;;;;;;;5016472;28;20176;-79
2022/12/29 05:08:55;;;;;;;0.70;0.70;;;;;;;;;;5016078;28;20230;-78
2022/12/29 05:11:21;;;;;;;0.60;0.60;;;;;;;;;;5016022;28;20184;-79
2022/12/29 05:13:47;;;;;;;0.57;0.57;;;;;;;;;;5015836;28;20196;-79
2022/12/29 05:16:13;;;;;;;0.70;0.70;;;;;;;;;;5017324;28;20180;-77
2022/12/29 05:18:39;;;;;;;0.60;0.60;;;;;;;;;;5020442;28;20223;-76
2022/12/29 05:21:05;;;;;;;0.80;0.80;;;;;;;;;;5021630;28;20176;-76
2022/12/29 05:23:31;;;;;;;0.70;0.70;;;;;;;;;;5022538;28;20196;-76
2022/12/29 05:25:57;;;;;;;0.70;0.70;;;;;;;;;;5021820;28;20288;-77
2022/12/29 05:28:23;;;;;;;0.70;0.70;;;;;;;;;;5021007;28;20176;-76
2022/12/29 05:30:50;;;;;;;0.60;0.60;;;;;;;;;;5019133;28;20176;-77
2022/12/29 05:33:16;;;;;;;0.60;0.60;;;;;;;;;;5017702;28;20256;-76
2022/12/29 05:35:42;;;;;;;0.53;0.53;;;;;;;;;;5018648;28;20243;-78
2022/12/29 05:38:08;;;;;;;0.73;0.73;;;;;;;;;;5017739;28;20250;-76
2022/12/29 05:40:34;;;;;;;0.60;0.60;;;;;;;;;;5016909;28;20179;-76
2022/12/29 05:43:00;;;;;;;0.60;0.60;;;;;;;;;;5016512;28;20208;-77
2022/12/29 05:45:25;;;;;;;0.70;0.70;;;;;;;;;;5015701;28;20180;-77
2022/12/29 05:47:51;;;;;;;0.70;0.70;;;;;;;;;;5013840;28;20536;-77
2022/12/29 05:50:17;;;;;;;0.67;0.67;;;;;;;;;;5013676;28;20183;-76
2022/12/29 05:52:43;;;;;;;0.60;0.60;;;;;;;;;;5013155;28;20180;-77
2022/12/29 05:55:10;;;;;;;0.70;0.70;;;;;;;;;;5014317;28;20645;-78
2022/12/29 05:57:36;;;;;;;0.70;0.70;;;;;;;;;;5013941;28;20212;-77
2022/12/29 06:00:03;;;;;;;0.63;0.63;;;;;;;;;;5013769;28;20808;-77
2022/12/29 06:02:30;;;;;;;0.63;0.63;;;;;;;;;;5013255;28;20238;-76
2022/12/29 06:04:56;;;;;;;0.70;0.70;;;;;;;;;;5012890;28;20575;-78
2022/12/29 06:07:22;;;;;;;0.60;0.60;;;;;;;;;;5013775;28;20216;-78
2022/12/29 06:09:48;;;;;;;0.70;0.70;;;;;;;;;;5013617;28;20181;-78
2022/12/29 06:12:14;;;;;;;0.70;0.70;;;;;;;;;;5013056;28;20649;-77
2022/12/29 06:14:40;;;;;;;0.70;0.70;;;;;;;;;;5013009;28;20258;-78
2022/12/29 06:17:06;;;;;;;0.67;0.67;;;;;;;;;;5013314;28;20254;-78
2022/12/29 06:19:32;;;;;;;0.70;0.70;;;;;;;;;;5013816;28;20275;-78
2022/12/29 06:21:58;;;;;;;0.70;0.70;;;;;;;;;;5013054;28;20211;-76
2022/12/29 06:24:24;;;;;;;0.60;0.60;;;;;;;;;;5013030;28;20220;-78
2022/12/29 06:26:49;;;;;;;0.70;0.70;;;;;;;;;;5014039;28;20522;-78
2022/12/29 06:29:16;;;;;;;0.77;0.77;;;;;;;;;;5015795;28;20642;-77
2022/12/29 06:31:45;;;;;;;0.60;0.60;;;;;;;;;;5013526;28;20646;-77
2022/12/29 06:34:11;;;;;;;0.60;0.60;;;;;;;;;;5014074;28;20283;-79
2022/12/29 06:36:37;;;;;;;0.60;0.60;;;;;;;;;;5014960;28;20184;-77
2022/12/29 06:39:03;;;;;;;0.60;0.60;;;;;;;;;;5014516;28;20243;-79
2022/12/29 06:41:29;;;;;;;0.60;0.60;;;;;;;;;;5014355;28;20272;-78
2022/12/29 06:43:55;;;;;;;0.60;0.60;;;;;;;;;;5014175;28;20193;-80
2022/12/29 06:46:21;;;;;;;0.70;0.70;;;;;;;;;;5014627;28;20192;-80
2022/12/29 06:48:47;;;;;;;0.60;0.60;;;;;;;;;;5014845;28;20181;-82
2022/12/29 06:51:13;;;;;;;0.63;0.63;;;;;;;;;;5014899;28;20187;-79
2022/12/29 06:53:38;;;;;;;0.60;0.60;;;;;;;;;;5016762;28;20239;-82
2022/12/29 06:56:05;;;;;;;0.80;0.80;;;;;;;;;;5015618;28;20262;-79
2022/12/29 06:58:31;;;;;;;0.50;0.50;;;;;;;;;;5025654;28;20514;-81
2022/12/29 07:00:57;;;;;;;0.80;0.80;;;;;;;;;;5026546;28;20273;-80
2022/12/29 07:03:23;;;;;;;0.60;0.60;;;;;;;;;;5017438;28;20268;-82
2022/12/29 07:05:49;;;;;;;0.60;0.60;;;;;;;;;;5015351;28;20212;-81
2022/12/29 07:08:15;;;;;;;0.60;0.60;;;;;;;;;;5016501;28;20246;-82
2022/12/29 07:10:41;;;;;;;0.57;0.57;;;;;;;;;;5016232;28;20191;-80
2022/12/29 07:13:10;;;;;;;0.60;0.60;;;;;;;;;;5011982;28;20188;-81
2022/12/29 07:15:37;;;;;;;0.70;0.70;;;;;;;;;;5013657;28;20196;-79
2022/12/29 07:18:03;;;;;;;0.60;0.60;;;;;;;;;;5016686;28;20219;-80
2022/12/29 07:20:29;;;;;;;0.70;0.70;;;;;;;;;;5015858;28;20275;-80
2022/12/29 07:22:55;;;;;;;0.60;0.60;;;;;;;;;;5017938;28;20188;-81
2022/12/29 07:25:22;;;;;;;0.60;0.60;;;;;;;;;;5001254;28;20188;-80
2022/12/29 07:27:48;;;;;;;0.70;0.70;;;;;;;;;;5018846;28;20184;-80
2022/12/29 07:30:14;;;;;;;0.60;0.60;;;;;;;;;;5021563;28;20172;-80
2022/12/29 07:32:40;;;;;;;0.67;0.67;;;;;;;;;;5021635;28;20192;-83
2022/12/29 07:35:07;;;;;;;0.60;0.60;;;;;;;;;;5021539;28;20592;-82
2022/12/29 07:37:33;;;;;;;0.70;0.70;;;;;;;;;;5019578;28;20230;-82
2022/12/29 07:39:59;;;;;;;0.70;0.70;;;;;;;;;;5017876;28;20189;-79
2022/12/29 07:42:24;;;;;;;0.70;0.70;;;;;;;;;;5017109;28;20173;-80
2022/12/29 07:44:50;;;;;;;0.63;0.63;;;;;;;;;;5032062;28;20279;-81
2022/12/29 07:47:16;;;;;;;0.70;0.70;;;;;;;;;;5017460;28;20191;-76
2022/12/29 07:49:42;;;;;;;0.50;0.50;;;;;;;;;;5023296;28;20184;-77
2022/12/29 07:52:08;;;;;;;0.50;0.50;;;;;;;;;;5018447;28;20190;-78
2022/12/29 07:54:34;;;;;;;0.60;0.60;;;;;;;;;;5019942;28;20262;-76
2022/12/29 07:57:00;;;;;;;0.60;0.60;;;;;;;;;;5032615;28;20233;-76
2022/12/29 07:59:26;;;;;;;0.67;0.67;;;;;;;;;;5021030;28;20181;-76
2022/12/29 08:01:52;;;;;;;0.70;0.70;;;;;;;;;;5013481;28;20735;-77
2022/12/29 08:04:18;;;;;;;0.60;0.60;;;;;;;;;;5013220;28;20205;-78
2022/12/29 08:06:45;;;;;;;0.60;0.60;;;;;;;;;;5031908;28;20251;-77
2022/12/29 08:09:11;;;;;;;0.50;0.50;;;;;;;;;;5033827;28;20265;-77
2022/12/29 08:11:37;;;;;;;0.50;0.50;;;;;;;;;;5014826;28;20181;-78
2022/12/29 08:14:03;;;;;;;0.70;0.70;;;;;;;;;;5012192;28;20204;-77
2022/12/29 08:16:29;;;;;;;0.50;0.50;;;;;;;;;;5012260;28;20184;-75
2022/12/29 08:18:55;;;;;;;0.70;0.70;;;;;;;;;;5014941;28;20212;-77
2022/12/29 08:21:21;;;;;;;0.50;0.50;;;;;;;;;;5012315;28;20181;-77
2022/12/29 08:23:48;;;;;;;0.60;0.60;;;;;;;;;;5012124;28;20426;-77
2022/12/29 08:26:14;;;;;;;0.63;0.63;;;;;;;;;;5013114;28;20227;-75
2022/12/29 08:28:40;;;;;;;0.60;0.60;;;;;;;;;;5011187;28;20218;-75
2022/12/29 08:31:06;;;;;;;0.60;0.60;;;;;;;;;;5011886;28;20176;-76
2022/12/29 08:33:31;;;;;;;0.63;0.63;;;;;;;;;;5011135;28;20220;-76
2022/12/29 08:36:05;;;;;;;0.60;0.60;;;;;;;;;;5015370;28;20183;-76
2022/12/29 08:38:31;;;;;;;0.60;0.60;;;;;;;;;;5020646;28;20207;-75
2022/12/29 08:40:58;;;;;;;0.60;0.60;;;;;;;;;;5032033;28;20250;-76
2022/12/29 08:43:24;;;;;;;0.60;0.60;;;;;;;;;;5023161;28;20300;-76
2022/12/29 08:45:50;;;;;;;0.50;0.50;;;;;;;;;;5011284;28;20191;-76
2022/12/29 08:48:21;;;;;;;0.60;0.60;;;;;;;;;;5010817;28;20176;-75
2022/12/29 08:50:48;;;;;;;0.57;0.57;;;;;;;;;;5011096;28;20211;-74
2022/12/29 08:53:14;;;;;;;0.60;0.60;;;;;;;;;;5009331;28;20220;-75
2022/12/29 08:55:40;;;;;;;0.50;0.50;;;;;;;;;;5011284;28;20207;-74
2022/12/29 08:58:06;;;;;;;0.40;0.40;;;;;;;;;;5011055;28;20226;-74
2022/12/29 09:00:32;;;;;;;0.50;0.50;;;;;;;;;;5011555;28;20203;-76
2022/12/29 09:02:58;;;;;;;0.50;0.50;;;;;;;;;;5013160;28;20188;-75
2022/12/29 09:05:24;;;;;;;0.63;0.63;;;;;;;;;;5013298;28;20168;-76
2022/12/29 09:07:49;;;;;;;0.60;0.60;;;;;;;;;;5025791;28;20184;-75
2022/12/29 09:10:15;;;;;;;0.50;0.50;;;;;;;;;;5011655;28;20172;-75
2022/12/29 09:12:41;;;;;;;0.60;0.60;;;;;;;;;;5028741;28;20179;-75
2022/12/29 09:15:08;;;;;;;0.50;0.50;;;;;;;;;;5029876;28;20218;-75
2022/12/29 09:17:43;;;;;;;0.50;0.50;;;;;;;;;;5013120;28;20204;-76
2022/12/29 09:20:09;;;;;;;0.43;0.43;;;;;;;;;;5012826;28;20685;-77
2022/12/29 09:22:36;;;;;;;0.63;0.63;;;;;;;;;;5012559;28;20178;-77
2022/12/29 09:25:02;;;;;;;0.50;0.50;;;;;;;;;;5011164;28;20215;-75
2022/12/29 09:27:28;;;;;;;0.57;0.57;;;;;;;;;;5018462;28;20179;-76
2022/12/29 09:29:54;;;;;;;0.60;0.60;;;;;;;;;;5028413;28;20722;-74
2022/12/29 09:32:20;;;;;;;0.40;0.40;;;;;;;;;;5030489;28;20180;-74
2022/12/29 09:34:46;;;;;;;0.60;0.60;;;;;;;;;;5004517;28;20231;-76
2022/12/29 09:37:12;;;;;;;0.40;0.40;;;;;;;;;;5027521;28;20815;-75
2022/12/29 09:39:38;;;;;;;0.40;0.40;;;;;;;;;;5018852;28;20245;-77
2022/12/29 09:42:17;;;;;;;0.60;0.60;;;;;;;;;;5021790;28;20654;-77
2022/12/29 09:44:46;;;;;;;0.40;0.40;;;;;;;;;;5027060;28;20205;-75
2022/12/29 09:47:13;;;;;;;0.50;0.50;;;;;;;;;;5015334;28;20177;-76
2022/12/29 09:49:50;;;;;;;0.50;0.50;;;;;;;;;;5025620;28;20533;-76
2022/12/29 09:52:19;;;;;;;0.50;0.50;;;;;;;;;;5023377;28;20175;-76
2022/12/29 09:54:54;;;;;;;0.50;0.50;;;;;;;;;;5006350;28;20206;-76
2022/12/29 09:57:23;;;;;;;0.50;0.50;;;;;;;;;;5000008;28;20195;-76
2022/12/29 09:59:50;;;;;;;0.57;0.57;;;;;;;;;;5024699;28;20181;-74
2022/12/29 10:02:24;;;;;;;0.50;0.50;;;;;;;;;;5023244;28;20557;-75
2022/12/29 10:04:50;;;;;;;0.47;0.47;;;;;;;;;;5017330;28;20279;-74
2022/12/29 10:07:21;;;;;;;0.60;0.60;;;;;;;;;;5029276;28;20200;-77
2022/12/29 10:10:02;;;;;;;0.50;0.50;;;;;;;;;;5020053;28;20183;-74
2022/12/29 10:12:31;;;;;;;0.50;0.50;;;;;;;;;;5018637;28;20184;-76
2022/12/29 10:15:02;;;;;;;0.40;0.40;;;;;;;;;;5048964;28;20215;-74
2022/12/29 10:17:41;;;;;;;0.50;0.50;;;;;;;;;;5041648;28;20195;-73
2022/12/29 10:20:15;;;;;;;0.67;0.67;;;;;;;;;;5046476;28;20168;-74
2022/12/29 10:23:00;;;;;;;0.50;0.50;;;;;;;;;;5050953;28;20170;-73
2022/12/29 10:25:27;;;;;;;0.60;0.60;;;;;;;;;;5025416;28;20195;-73
2022/12/29 10:27:54;;;;;;;0.50;0.50;;;;;;;;;;5047969;28;20199;-74
2022/12/29 10:30:20;;;;;;;0.50;0.50;;;;;;;;;;5040219;28;20180;-76
2022/12/29 10:32:50;;;;;;;0.50;0.50;;;;;;;;;;5015058;28;20176;-76
2022/12/29 10:35:19;;;;;;;0.50;0.50;;;;;;;;;;5027582;28;20179;-74
2022/12/29 10:37:48;;;;;;;0.47;0.47;;;;;;;;;;5018782;28;20218;-75
2022/12/29 10:40:26;;;;;;;0.50;0.50;;;;;;;;;;5020565;28;20182;-74
2022/12/29 10:42:54;;;;;;;0.50;0.50;;;;;;;;;;5027279;28;20549;-74
2022/12/29 10:45:20;;;;;;;0.40;0.40;;;;;;;;;;4999211;28;20218;-74
2022/12/29 10:47:53;;;;;;;0.50;0.50;;;;;;;;;;5024448;28;20287;-75
2022/12/29 10:50:19;;;;;;;0.40;0.40;;;;;;;;;;5022728;28;20187;-74
2022/12/29 10:52:45;;;;;;;0.60;0.60;;;;;;;;;;5015265;28;20695;-74
2022/12/29 10:55:17;;;;;;;0.40;0.40;;;;;;;;;;5027652;28;20183;-74
2022/12/29 10:57:44;;;;;;;0.40;0.40;;;;;;;;;;5018335;28;20208;-74
2022/12/29 11:00:20;;;;;;;0.50;0.50;;;;;;;;;;5020766;28;20177;-74
2022/12/29 11:03:01;;;;;;;0.43;0.43;;;;;;;;;;5026650;28;20198;-74
2022/12/29 11:05:30;;;;;;;0.53;0.53;;;;;;;;;;5002383;28;20168;-74
2022/12/29 11:07:59;;;;;;;0.40;0.40;;;;;;;;;;5022314;28;20177;-74
2022/12/29 11:10:25;;;;;;;0.40;0.40;;;;;;;;;;5024222;28;20179;-74
2022/12/29 11:13:15;;;;;;;0.57;0.57;;;;;;;;;;5014074;28;20177;-75
2022/12/29 11:15:42;;;;;;;0.40;0.40;;;;;;;;;;5003929;28;20191;-75
2022/12/29 11:18:25;;;;;;;0.57;0.57;;;;;;;;;;5020678;28;20235;-75
2022/12/29 11:21:02;;;;;;;0.50;0.50;;;;;;;;;;5027142;28;20180;-75
2022/12/29 11:23:28;;;;;;;0.50;0.50;;;;;;;;;;5000917;28;20196;-74
2022/12/29 11:26:13;;;;;;;0.50;0.50;;;;;;;;;;5022247;28;20198;-74
2022/12/29 11:28:39;;;;;;;0.50;0.50;;;;;;;;;;5025227;28;20649;-76
2022/12/29 11:31:06;;;;;;;0.50;0.50;;;;;;;;;;5013877;28;20180;-76
2022/12/29 11:33:33;;;;;;;0.50;0.50;;;;;;;;;;5031119;28;20691;-75
2022/12/29 11:36:02;;;;;;;0.50;0.50;;;;;;;;;;5031365;28;20668;-75
2022/12/29 11:38:34;;;;;;;0.50;0.50;;;;;;;;;;5031376;28;20233;-75
2022/12/29 11:41:00;;;;;;;0.50;0.50;;;;;;;;;;5031502;28;20184;-76
2022/12/29 11:43:34;;;;;;;0.50;0.50;;;;;;;;;;5030207;28;20290;-75
2022/12/29 11:46:03;;;;;;;0.57;0.57;;;;;;;;;;5013813;28;20173;-75
2022/12/29 11:48:30;;;;;;;0.47;0.47;;;;;;;;;;5011577;28;20239;-75
2022/12/29 11:51:00;;;;;;;0.50;0.50;;;;;;;;;;5011477;28;20181;-75
2022/12/29 11:53:28;;;;;;;0.57;0.57;;;;;;;;;;5010879;28;20211;-76
2022/12/29 11:55:59;;;;;;;0.50;0.50;;;;;;;;;;5011375;28;20196;-76
2022/12/29 11:58:32;;;;;;;0.50;0.50;;;;;;;;;;5011225;28;20224;-75
2022/12/29 12:00:59;;;;;;;0.40;0.40;;;;;;;;;;5011295;28;20179;-74
2022/12/29 12:03:28;;;;;;;0.50;0.50;;;;;;;;;;5012498;28;20208;-75
2022/12/29 12:05:54;;;;;;;0.60;0.60;;;;;;;;;;5014963;28;20168;-75
2022/12/29 12:08:39;;;;;;;0.40;0.40;;;;;;;;;;5014946;28;20199;-76
2022/12/29 12:11:19;;;;;;;0.50;0.50;;;;;;;;;;5013958;28;20181;-75
2022/12/29 12:13:58;;;;;;;0.40;0.40;;;;;;;;;;5013607;28;20507;-76
2022/12/29 12:16:31;;;;;;;0.50;0.50;;;;;;;;;;5014732;28;20176;-74
2022/12/29 12:18:59;;;;;;;0.50;0.50;;;;;;;;;;5014210;28;20223;-75
2022/12/29 12:21:32;;;;;;;0.40;0.40;;;;;;;;;;5014739;28;20587;-75
2022/12/29 12:23:58;;;;;;;0.50;0.50;;;;;;;;;;5013683;28;20877;-77
2022/12/29 12:26:30;;;;;;;0.40;0.40;;;;;;;;;;5014529;28;20254;-76
2022/12/29 12:29:00;;;;;;;0.50;0.50;;;;;;;;;;5014307;28;20514;-76
2022/12/29 12:31:29;;;;;;;0.40;0.40;;;;;;;;;;5014592;28;20606;-75
2022/12/29 12:33:58;;;;;;;0.40;0.40;;;;;;;;;;5013683;28;20697;-76
2022/12/29 12:36:43;;;;;;;0.40;0.40;;;;;;;;;;5014557;28;20184;-76
2022/12/29 12:39:17;;;;;;;0.40;0.40;;;;;;;;;;5014443;28;20227;-78
2022/12/29 12:41:42;;;;;;;0.40;0.40;;;;;;;;;;5015768;28;20183;-75
2022/12/29 12:44:29;;;;;;;0.30;0.30;;;;;;;;;;5013301;28;20196;-77
2022/12/29 12:47:01;;;;;;;0.40;0.40;;;;;;;;;;5011870;28;20259;-77
2022/12/29 12:49:43;;;;;;;0.50;0.50;;;;;;;;;;5014831;28;20592;-77
2022/12/29 12:52:17;;;;;;;0.40;0.40;;;;;;;;;;5013632;28;20603;-78
2022/12/29 12:54:55;;;;;;;0.53;0.53;;;;;;;;;;5013202;28;20251;-78
2022/12/29 12:57:39;;;;;;;0.50;0.50;;;;;;;;;;4994487;28;20181;-79
2022/12/29 13:00:09;;;;;;;0.50;0.50;;;;;;;;;;4994334;28;20313;-76
2022/12/29 13:02:44;;;;;;;0.47;0.47;;;;;;;;;;4993664;28;20181;-77
2022/12/29 13:05:10;;;;;;;0.47;0.47;;;;;;;;;;4994281;28;20191;-78
2022/12/29 13:07:39;;;;;;;0.40;0.40;;;;;;;;;;4993941;28;20177;-77
2022/12/29 13:10:15;;;;;;;0.50;0.50;;;;;;;;;;4997061;28;20272;-79
2022/12/29 13:12:45;;;;;;;0.50;0.50;;;;;;;;;;5011674;28;20180;-77
2022/12/29 13:15:25;;;;;;;0.60;0.60;;;;;;;;;;5013251;28;20176;-76
2022/12/29 13:18:13;;;;;;;0.50;0.50;;;;;;;;;;5013197;28;20208;-78
2022/12/29 13:20:59;;;;;;;0.60;0.60;;;;;;;;;;5013446;28;20173;-77
2022/12/29 13:23:57;;;;;;;0.40;0.40;;;;;;;;;;5012797;28;20200;-77
2022/12/29 13:26:31;;;;;;;0.47;0.47;;;;;;;;;;5000565;28;20267;-77
2022/12/29 13:29:06;;;;;;;0.50;0.50;;;;;;;;;;5012979;28;20172;-77
2022/12/29 13:31:35;;;;;;;0.40;0.40;;;;;;;;;;5012489;28;20610;-77
2022/12/29 13:34:20;;;;;;;0.40;0.40;;;;;;;;;;5011917;28;20641;-77
2022/12/29 13:36:53;;;;;;;0.40;0.40;;;;;;;;;;5012628;28;20279;-77
2022/12/29 13:39:21;;;;;;;0.40;0.40;;;;;;;;;;5010479;28;20246;-76
2022/12/29 13:41:54;;;;;;;0.50;0.50;;;;;;;;;;5013022;28;20239;-76
2022/12/29 13:44:41;;;;;;;0.50;0.50;;;;;;;;;;5011414;28;20646;-75
2022/12/29 13:47:22;;;;;;;0.50;0.50;;;;;;;;;;5010242;28;20263;-77
2022/12/29 13:49:48;;;;;;;0.50;0.50;;;;;;;;;;5014017;28;20601;-77
2022/12/29 13:52:23;;;;;;;0.60;0.60;;;;;;;;;;5013886;28;20239;-77
2022/12/29 13:55:02;;;;;;;0.50;0.50;;;;;;;;;;5013817;28;20242;-76
2022/12/29 13:57:35;;;;;;;0.60;0.60;;;;;;;;;;5014296;28;20389;-77
2022/12/29 14:00:04;;;;;;;0.50;0.50;;;;;;;;;;5014259;28;20264;-77
2022/12/29 14:02:45;;;;;;;0.40;0.40;;;;;;;;;;5014119;28;20246;-76
2022/12/29 14:05:20;;;;;;;0.50;0.50;;;;;;;;;;5012217;28;20180;-76
2022/12/29 14:07:47;;;;;;;0.50;0.50;;;;;;;;;;5013975;28;20317;-78
2022/12/29 14:10:33;;;;;;;0.50;0.50;;;;;;;;;;5021113;28;20626;-78
2022/12/29 14:13:13;;;;;;;0.60;0.60;;;;;;;;;;5011372;28;20262;-77
2022/12/29 14:15:43;;;;;;;0.57;0.57;;;;;;;;;;4995906;28;20189;-77
2022/12/29 14:18:22;;;;;;;0.50;0.50;;;;;;;;;;4992373;28;20867;-78
2022/12/29 14:20:53;;;;;;;0.50;0.50;;;;;;;;;;4992370;28;20573;-77
2022/12/29 14:23:35;;;;;;;0.63;0.63;;;;;;;;;;5007695;28;20197;-78
2022/12/29 14:26:08;;;;;;;0.40;0.40;;;;;;;;;;5011572;28;20284;-78
2022/12/29 14:28:44;;;;;;;0.57;0.57;;;;;;;;;;5012064;28;20234;-78
2022/12/29 14:31:19;;;;;;;0.50;0.50;;;;;;;;;;5012168;28;20187;-78
2022/12/29 14:34:03;;;;;;;0.40;0.40;;;;;;;;;;5011481;28;20199;-78
2022/12/29 14:36:39;;;;;;;0.40;0.40;;;;;;;;;;4993101;28;20181;-78
2022/12/29 14:39:25;;;;;;;0.60;0.60;;;;;;;;;;4991890;28;20200;-79
2022/12/29 14:42:06;;;;;;;0.53;0.53;;;;;;;;;;4994927;28;20185;-78
2022/12/29 14:44:32;;;;;;;0.40;0.40;;;;;;;;;;4996624;28;20637;-78
2022/12/29 14:47:00;;;;;;;0.50;0.50;;;;;;;;;;5012269;28;20195;-77
2022/12/29 14:49:31;;;;;;;0.50;0.50;;;;;;;;;;5011977;28;20188;-77
2022/12/29 14:52:15;;;;;;;0.50;0.50;;;;;;;;;;5011802;28;20244;-78
2022/12/29 14:54:43;;;;;;;0.60;0.60;;;;;;;;;;5011238;28;20572;-76
2022/12/29 14:57:14;;;;;;;0.60;0.60;;;;;;;;;;5011099;28;20703;-77
2022/12/29 14:59:40;;;;;;;0.50;0.50;;;;;;;;;;5011525;28;20187;-77
2022/12/29 15:02:15;;;;;;;0.40;0.40;;;;;;;;;;5009214;28;20639;-76
2022/12/29 15:04:42;;;;;;;0.50;0.50;;;;;;;;;;5009394;28;20238;-77
2022/12/29 15:07:09;;;;;;;0.60;0.60;;;;;;;;;;5009642;28;20212;-77
2022/12/29 15:09:38;;;;;;;0.60;0.60;;;;;;;;;;5018609;28;20180;-76
2022/12/29 15:12:22;;;;;;;0.60;0.60;;;;;;;;;;5028599;28;20180;-76
2022/12/29 15:14:55;;;;;;;0.60;0.60;;;;;;;;;;5025502;28;20269;-76
2022/12/29 15:17:34;;;;;;;0.50;0.50;;;;;;;;;;5025300;28;20649;-76
2022/12/29 15:20:01;;;;;;;0.40;0.40;;;;;;;;;;5029625;28;20213;-78
2022/12/29 15:22:27;;;;;;;0.67;0.67;;;;;;;;;;5028138;28;20266;-77
2022/12/29 15:24:55;;;;;;;0.57;0.57;;;;;;;;;;5013586;28;20231;-76
2022/12/29 15:27:23;;;;;;;0.40;0.40;;;;;;;;;;5009490;28;20184;-75
2022/12/29 15:29:56;;;;;;;0.50;0.50;;;;;;;;;;5008814;28;20257;-75
2022/12/29 15:32:24;;;;;;;0.50;0.50;;;;;;;;;;5017199;28;20183;-76